Time;durP1;ratioP1;P1;durP2;ratioP2;P2;SDS_P1;SDS_P2;PMS_P1;PMS_P2;Temp;Humidity;BMP_temperature;BMP_pressure;BME280_temperature;BME280_humidity;BME280_pressure;Samples;Min_cycle;Max_cycle;Signal;HPM_P1;HPM_P2
2022/03/11 00:00:26;;;;;;;24.73;22.83;;;;;;;13.39;86.08;99738.53;5047750;28;20056;-73
2022/03/11 00:02:52;;;;;;;23.83;22.00;;;;;;;13.33;85.66;99710.94;5049091;28;20072;-79
2022/03/11 00:05:20;;;;;;;24.93;22.97;;;;;;;13.04;85.16;99715.81;5049704;28;20060;-79
2022/03/11 00:07:52;;;;;;;28.83;25.97;;;;;;;13.19;85.37;99736.19;5052848;28;20103;-79
2022/03/11 00:10:19;;;;;;;27.30;25.20;;;;;;;13.22;85.23;99760.78;5044826;28;20451;-78
2022/03/11 00:12:47;;;;;;;27.60;25.20;;;;;;;12.89;85.04;99704.97;5034969;28;20079;-79
2022/03/11 00:15:15;;;;;;;26.93;24.43;;;;;;;13.07;84.70;99761.19;5050485;28;20104;-72
2022/03/11 00:17:44;;;;;;;26.67;24.43;;;;;;;12.98;84.58;99753.50;5050577;28;20057;-75
2022/03/11 00:20:11;;;;;;;26.50;24.25;;;;;;;12.95;84.50;99761.72;5042983;28;20126;-77
2022/03/11 00:22:38;;;;;;;26.03;23.47;;;;;;;12.84;84.45;99737.88;5049314;28;20340;-77
2022/03/11 00:25:05;;;;;;;26.00;23.53;;;;;;;12.52;84.40;99694.91;5053661;28;20080;-77
2022/03/11 00:27:32;;;;;;;26.97;24.77;;;;;;;12.53;84.26;99728.19;5055258;28;20052;-72
2022/03/11 00:30:01;;;;;;;26.50;23.90;;;;;;;12.78;84.53;99737.16;5051922;28;20071;-74
2022/03/11 00:32:28;;;;;;;41.17;38.20;;;;;;;12.69;84.38;99750.28;5052310;28;20045;-75
2022/03/11 00:34:55;;;;;;;26.40;24.23;;;;;;;12.73;84.48;99768.09;5050092;28;20175;-75
2022/03/11 00:37:22;;;;;;;26.07;23.97;;;;;;;12.78;84.29;99770.78;5069023;28;20037;-75
2022/03/11 00:39:49;;;;;;;26.27;24.20;;;;;;;12.73;84.32;99756.91;5066641;28;20060;-74
2022/03/11 00:42:16;;;;;;;25.43;23.70;;;;;;;12.45;84.25;99734.53;5078710;28;20033;-74
2022/03/11 00:44:43;;;;;;;27.10;25.33;;;;;;;12.78;84.14;99785.63;5078705;28;20064;-75
2022/03/11 00:47:10;;;;;;;26.50;24.37;;;;;;;12.80;84.24;99785.31;5073468;28;20045;-74
2022/03/11 00:49:37;;;;;;;26.33;24.07;;;;;;;12.82;84.08;99785.84;5076728;28;20021;-73
2022/03/11 00:52:05;;;;;;;26.30;24.60;;;;;;;12.72;84.16;99758.06;5075311;28;20045;-75
2022/03/11 00:54:32;;;;;;;25.10;23.10;;;;;;;12.86;84.18;99778.47;5061336;28;20507;-74
2022/03/11 00:56:59;;;;;;;24.43;22.90;;;;;;;12.81;84.11;99775.75;5060243;28;20542;-73
2022/03/11 00:59:26;;;;;;;28.63;26.43;;;;;;;12.81;83.99;99781.38;5059121;28;20095;-74
2022/03/11 01:01:53;;;;;;;21.90;20.13;;;;;;;12.78;84.08;99787.59;5055899;28;20053;-74
2022/03/11 01:04:20;;;;;;;17.37;16.20;;;;;;;12.69;84.03;99775.50;5056886;28;20053;-74
2022/03/11 01:06:47;;;;;;;21.37;20.07;;;;;;;12.60;84.10;99763.34;5058185;28;20082;-72
2022/03/11 01:09:14;;;;;;;15.60;14.67;;;;;;;12.76;84.10;99789.91;5060053;28;20046;-73
2022/03/11 01:11:41;;;;;;;15.90;14.37;;;;;;;12.69;84.25;99784.72;5058746;28;20049;-74
2022/03/11 01:14:08;;;;;;;17.80;15.83;;;;;;;12.40;84.24;99734.63;5055571;28;20053;-75
2022/03/11 01:16:35;;;;;;;15.03;14.00;;;;;;;12.81;84.32;99796.19;5059854;28;20106;-74
2022/03/11 01:19:03;;;;;;;15.33;14.17;;;;;;;12.91;83.98;99797.13;5061772;28;20072;-75
2022/03/11 01:21:30;;;;;;;15.93;14.70;;;;;;;12.94;84.10;99783.31;5063142;28;20057;-73
2022/03/11 01:23:57;;;;;;;15.10;13.73;;;;;;;12.91;84.07;99785.91;5069216;28;20106;-71
2022/03/11 01:26:24;;;;;;;14.97;13.57;;;;;;;12.92;84.41;99782.81;5065706;28;20392;-69
2022/03/11 01:28:51;;;;;;;14.20;12.90;;;;;;;13.04;84.33;99783.06;5047316;28;20048;-73
2022/03/11 01:31:18;;;;;;;14.47;13.20;;;;;;;12.66;84.25;99728.50;5054967;28;20084;-72
2022/03/11 01:33:46;;;;;;;13.57;12.83;;;;;;;13.02;84.23;99776.97;5055166;28;20060;-72
2022/03/11 01:36:14;;;;;;;13.87;12.40;;;;;;;13.08;84.13;99782.44;5048910;28;20445;-72
2022/03/11 01:38:43;;;;;;;13.10;12.20;;;;;;;13.05;84.16;99776.31;5052919;28;20488;-73
2022/03/11 01:41:10;;;;;;;19.27;12.15;;;;;;;13.09;83.90;99778.50;5037751;28;20061;-72
2022/03/11 01:44:09;;;;;;;14.90;13.50;;;;;;;13.12;84.37;99780.66;5048692;28;20091;-72
2022/03/11 01:46:37;;;;;;;13.93;12.67;;;;;;;13.10;84.05;99772.59;5045201;28;20385;-74
2022/03/11 01:49:06;;;;;;;13.20;12.07;;;;;;;12.85;84.08;99715.13;5032483;28;20045;-73
2022/03/11 01:51:37;;;;;;;13.30;12.10;;;;;;;13.21;84.16;99792.78;5051223;28;20045;-73
2022/03/11 01:54:05;;;;;;;13.60;12.30;;;;;;;13.22;84.07;99798.06;5049748;28;20364;-73
2022/03/11 01:56:33;;;;;;;16.73;14.90;;;;;;;13.21;84.17;99792.78;5032673;28;20045;-72
2022/03/11 01:59:00;;;;;;;13.73;12.63;;;;;;;13.09;84.11;99775.69;5042568;28;20512;-73
2022/03/11 02:01:27;;;;;;;16.63;13.13;;;;;;;13.23;84.23;99794.13;5051061;28;20052;-73
2022/03/11 02:03:57;;;;;;;12.00;11.03;;;;;;;13.23;84.35;99785.72;5051906;28;20049;-71
2022/03/11 02:06:24;;;;;;;12.33;11.63;;;;;;;13.36;84.12;99803.66;5050642;28;20466;-73
2022/03/11 02:08:51;;;;;;;16.10;14.67;;;;;;;13.03;84.11;99756.19;5042278;28;20777;-75
2022/03/11 02:11:19;;;;;;;14.73;12.40;;;;;;;13.08;84.50;99766.44;5052198;28;20570;-74
2022/03/11 02:13:49;;;;;;;14.47;12.67;;;;;;;13.20;84.26;99793.94;5052343;28;20044;-74
2022/03/11 02:16:24;;;;;;;13.77;12.63;;;;;;;13.28;84.42;99801.63;5050765;28;20461;-74
2022/03/11 02:18:51;;;;;;;13.17;11.90;;;;;;;13.31;84.15;99772.13;5052446;28;20053;-75
2022/03/11 02:21:20;;;;;;;18.03;12.63;;;;;;;13.36;84.07;99786.00;5019282;28;20394;-78
2022/03/11 02:23:53;;;;;;;12.00;11.13;;;;;;;13.37;84.32;99796.91;5048481;28;20053;-72
2022/03/11 02:26:23;;;;;;;15.53;12.23;;;;;;;13.23;84.38;99768.91;5043032;28;23139;-74
2022/03/11 02:28:52;;;;;;;11.70;10.90;;;;;;;13.38;84.35;99800.56;5050786;28;20049;-74
2022/03/11 02:31:20;;;;;;;10.97;10.00;;;;;;;13.36;84.17;99789.63;5048360;28;20061;-75
2022/03/11 02:33:47;;;;;;;11.60;10.47;;;;;;;13.07;84.29;99747.16;5052738;28;20305;-75
2022/03/11 02:36:18;;;;;;;16.73;11.13;;;;;;;13.38;84.41;99806.16;5044031;28;20083;-75
2022/03/11 02:38:45;;;;;;;13.73;11.20;;;;;;;13.15;84.32;99761.22;5040189;28;20080;-76
2022/03/11 02:41:13;;;;;;;22.60;11.03;;;;;;;13.43;84.34;99808.81;5052610;28;20045;-74
2022/03/11 02:43:41;;;;;;;13.17;11.50;;;;;;;13.38;84.36;99794.94;5045624;28;20061;-73
2022/03/11 02:46:13;;;;;;;12.73;11.53;;;;;;;13.45;84.46;99806.53;5047081;28;20103;-76
2022/03/11 02:48:41;;;;;;;12.00;11.10;;;;;;;13.47;84.24;99816.31;5035281;28;20053;-75
2022/03/11 02:51:09;;;;;;;20.13;10.30;;;;;;;13.28;84.32;99784.78;5051741;28;20048;-76
2022/03/11 02:53:40;;;;;;;16.87;10.80;;;;;;;13.49;84.44;99822.41;5049692;28;20053;-76
2022/03/11 02:56:09;;;;;;;21.47;10.70;;;;;;;13.47;84.32;99807.88;5045343;28;20050;-75
2022/03/11 02:58:38;;;;;;;11.53;10.60;;;;;;;13.17;84.27;99760.94;5051381;28;20057;-79
2022/03/11 03:01:05;;;;;;;22.83;10.37;;;;;;;13.50;84.43;99810.06;5045642;28;20041;-79
2022/03/11 03:03:32;;;;;;;24.07;11.43;;;;;;;13.50;84.38;99814.81;5042098;28;20482;-75
2022/03/11 03:05:59;;;;;;;25.27;11.27;;;;;;;13.47;84.18;99809.88;5051750;28;20053;-74
2022/03/11 03:08:26;;;;;;;11.00;10.03;;;;;;;13.47;84.14;99805.09;5040298;28;20106;-75
2022/03/11 03:10:53;;;;;;;32.10;10.23;;;;;;;13.51;83.81;99808.09;5038917;28;20049;-78
2022/03/11 03:13:20;;;;;;;17.73;9.77;;;;;;;13.33;83.82;99778.22;5045155;28;20106;-77
2022/03/11 03:15:46;;;;;;;14.27;10.03;;;;;;;13.51;83.79;99805.28;5041012;28;20152;-78
2022/03/11 03:18:13;;;;;;;18.70;9.80;;;;;;;13.29;83.54;99778.03;5052016;28;20408;-77
2022/03/11 03:20:40;;;;;;;26.13;10.27;;;;;;;13.44;83.51;99794.50;5039745;28;20488;-77
2022/03/11 03:23:07;;;;;;;13.33;9.13;;;;;;;13.48;83.50;99812.34;5040831;28;20110;-77
2022/03/11 03:25:34;;;;;;;12.93;9.53;;;;;;;13.11;83.26;99767.81;5039996;28;20049;-77
2022/03/11 03:28:01;;;;;;;17.97;10.43;;;;;;;13.02;83.23;99748.94;5039469;28;20050;-77
2022/03/11 03:30:28;;;;;;;14.93;9.27;;;;;;;13.40;83.21;99812.25;5044795;28;20123;-77
2022/03/11 03:32:55;;;;;;;10.13;9.13;;;;;;;13.32;82.82;99822.25;5046978;28;20115;-76
2022/03/11 03:35:21;;;;;;;14.40;9.40;;;;;;;13.36;82.66;99820.47;5049886;28;20083;-77
2022/03/11 03:37:48;;;;;;;12.97;9.40;;;;;;;13.27;82.77;99823.22;5051961;28;20057;-77
2022/03/11 03:40:15;;;;;;;14.90;9.17;;;;;;;13.18;82.74;99819.47;5051468;28;20138;-77
2022/03/11 03:42:46;;;;;;;16.80;9.20;;;;;;;13.23;82.61;99836.19;5045779;28;20049;-76
2022/03/11 03:45:13;;;;;;;10.00;9.07;;;;;;;12.81;82.26;99765.38;5048031;28;20056;-76
2022/03/11 03:47:40;;;;;;;18.57;9.93;;;;;;;13.15;82.16;99830.50;5051704;28;20092;-75
2022/03/11 03:50:07;;;;;;;18.77;9.73;;;;;;;12.78;82.18;99777.22;5054811;28;20166;-76
2022/03/11 03:52:34;;;;;;;9.70;8.90;;;;;;;13.12;82.03;99831.94;5052288;28;20061;-76
2022/03/11 03:55:01;;;;;;;16.27;8.57;;;;;;;13.09;82.12;99823.34;5054594;28;20069;-75
2022/03/11 03:57:28;;;;;;;10.00;9.00;;;;;;;13.10;81.85;99831.44;5053607;28;20045;-76
2022/03/11 03:59:54;;;;;;;12.13;8.77;;;;;;;12.93;82.05;99809.69;5068091;28;20069;-74
2022/03/11 04:02:21;;;;;;;17.53;9.23;;;;;;;13.05;82.03;99825.94;5075575;28;20037;-74
2022/03/11 04:04:48;;;;;;;10.43;8.63;;;;;;;13.09;81.89;99831.75;5055732;28;20076;-73
2022/03/11 04:07:15;;;;;;;16.50;9.40;;;;;;;13.07;81.61;99814.44;5053888;28;20052;-75
2022/03/11 04:09:42;;;;;;;13.27;9.23;;;;;;;13.02;81.68;99810.59;5048000;28;20046;-75
2022/03/11 04:12:09;;;;;;;11.20;8.20;;;;;;;12.65;81.49;99766.88;5034755;28;20103;-78
2022/03/11 04:14:36;;;;;;;11.57;9.23;;;;;;;13.08;81.48;99835.69;5047979;28;20071;-76
2022/03/11 04:17:03;;;;;;;10.17;9.20;;;;;;;13.08;81.59;99830.09;5049164;28;20408;-77
2022/03/11 04:19:31;;;;;;;13.53;9.77;;;;;;;13.08;81.49;99836.53;5039152;28;20045;-74
2022/03/11 04:21:58;;;;;;;12.93;9.13;;;;;;;13.10;81.50;99837.06;5047562;28;20522;-74
2022/03/11 04:24:25;;;;;;;10.13;9.20;;;;;;;13.01;81.66;99822.13;5054976;28;20068;-75
2022/03/11 04:26:52;;;;;;;10.93;9.20;;;;;;;12.95;81.48;99815.78;5056947;28;20581;-78
2022/03/11 04:29:19;;;;;;;9.83;8.10;;;;;;;12.97;81.44;99813.50;5059036;28;20492;-78
2022/03/11 04:31:45;;;;;;;10.30;8.47;;;;;;;13.08;81.55;99835.69;5051127;28;20095;-76
2022/03/11 04:34:12;;;;;;;17.57;8.90;;;;;;;13.06;81.48;99824.81;5052017;28;20056;-73
2022/03/11 04:36:42;;;;;;;21.35;10.40;;;;;;;13.11;81.53;99826.66;5054692;28;20049;-78
2022/03/11 04:39:09;;;;;;;19.30;8.73;;;;;;;13.09;81.58;99826.13;5047013;28;20045;-74
2022/03/11 04:41:36;;;;;;;24.07;8.77;;;;;;;13.10;81.54;99823.03;5054391;28;20576;-75
2022/03/11 04:44:04;;;;;;;10.67;8.97;;;;;;;13.16;81.63;99826.53;5053825;28;20095;-74
2022/03/11 04:46:31;;;;;;;10.80;8.43;;;;;;;13.08;81.77;99813.28;5051123;28;20049;-72
2022/03/11 04:48:58;;;;;;;11.53;8.33;;;;;;;13.20;81.78;99833.19;5053799;28;20052;-74
2022/03/11 04:51:25;;;;;;;22.90;8.77;;;;;;;13.18;81.97;99829.88;5050938;28;20041;-76
2022/03/11 04:53:53;;;;;;;8.97;8.10;;;;;;;13.07;82.16;99806.03;5052510;28;20065;-77
2022/03/11 04:56:19;;;;;;;14.90;8.93;;;;;;;12.91;81.93;99778.34;5053462;28;20072;-78
2022/03/11 04:58:46;;;;;;;21.37;9.17;;;;;;;12.94;81.56;99780.50;5054036;28;20052;-77
2022/03/11 05:01:13;;;;;;;18.50;10.30;;;;;;;13.24;81.50;99845.47;5048005;28;20560;-79
2022/03/11 05:03:40;;;;;;;22.77;8.63;;;;;;;12.91;81.55;99803.56;5048995;28;20059;-78
2022/03/11 05:06:10;;;;;;;20.70;8.73;;;;;;;13.25;81.23;99847.09;5051869;28;20071;-78
2022/03/11 05:08:37;;;;;;;11.70;9.00;;;;;;;13.15;81.53;99842.53;5033868;28;20098;-78
2022/03/11 05:11:05;;;;;;;16.03;10.73;;;;;;;13.18;81.22;99850.31;5053878;28;20048;-77
2022/03/11 05:13:32;;;;;;;14.33;9.07;;;;;;;13.24;81.24;99859.47;5046545;28;20049;-77
2022/03/11 05:16:01;;;;;;;9.07;8.10;;;;;;;13.24;81.50;99860.31;5049940;28;20444;-77
2022/03/11 05:18:28;;;;;;;15.70;7.80;;;;;;;13.13;81.49;99847.66;5043654;28;20776;-77
2022/03/11 05:20:55;;;;;;;15.13;8.73;;;;;;;13.18;81.64;99863.50;5034809;28;20045;-77
2022/03/11 05:23:22;;;;;;;12.20;8.60;;;;;;;13.27;81.36;99887.72;5029951;28;20071;-76
2022/03/11 05:25:49;;;;;;;9.63;8.80;;;;;;;13.27;81.37;99884.09;5051570;28;20115;-76
2022/03/11 05:28:16;;;;;;;10.73;8.57;;;;;;;12.96;81.62;99830.66;5041329;28;20096;-76
2022/03/11 05:30:43;;;;;;;13.10;7.83;;;;;;;13.29;81.31;99870.56;5042038;28;20049;-76
2022/03/11 05:33:13;;;;;;;13.13;8.43;;;;;;;13.32;81.25;99875.53;5048047;28;20083;-76
2022/03/11 05:35:41;;;;;;;25.53;8.70;;;;;;;12.90;80.95;99801.91;5050151;28;20115;-75
2022/03/11 05:38:08;;;;;;;18.73;9.53;;;;;;;12.97;81.45;99824.72;5050841;28;20048;-76
2022/03/11 05:40:35;;;;;;;11.10;7.87;;;;;;;13.00;81.22;99831.69;5051482;28;20488;-75
2022/03/11 05:43:03;;;;;;;17.20;8.37;;;;;;;13.25;81.13;99866.75;5048365;28;20083;-76
2022/03/11 05:45:30;;;;;;;17.97;8.80;;;;;;;13.01;81.03;99834.16;5052230;28;20049;-76
2022/03/11 05:47:57;;;;;;;16.07;8.40;;;;;;;13.35;80.81;99883.34;5051071;28;20138;-76
2022/03/11 05:50:24;;;;;;;12.53;8.20;;;;;;;13.36;81.14;99882.19;5050683;28;20478;-75
2022/03/11 05:52:51;;;;;;;13.37;8.67;;;;;;;13.25;80.90;99859.16;5052708;28;20094;-76
2022/03/11 05:55:18;;;;;;;21.27;8.17;;;;;;;13.32;80.91;99864.31;5052473;28;20076;-77
2022/03/11 05:57:45;;;;;;;14.77;7.57;;;;;;;13.12;80.79;99836.72;5051527;28;20053;-74
2022/03/11 06:00:13;;;;;;;22.70;8.40;;;;;;;13.01;80.95;99825.75;5051498;28;20145;-73
2022/03/11 06:02:40;;;;;;;16.33;8.47;;;;;;;13.41;81.01;99886.84;5036280;28;20049;-74
2022/03/11 06:05:11;;;;;;;14.10;8.60;;;;;;;13.41;80.76;99898.91;5047639;28;20056;-74
2022/03/11 06:07:39;;;;;;;18.27;8.50;;;;;;;13.42;80.94;99894.94;5050469;28;20045;-72
2022/03/11 06:10:07;;;;;;;10.77;7.87;;;;;;;13.40;80.64;99897.25;5051734;28;20041;-72
2022/03/11 06:12:34;;;;;;;22.03;9.13;;;;;;;13.45;80.51;99902.72;5054825;28;20067;-75
2022/03/11 06:15:11;;;;;;;13.13;7.93;;;;;;;13.23;80.71;99883.84;5056920;28;20052;-74
2022/03/11 06:17:38;;;;;;;20.37;8.13;;;;;;;13.14;80.37;99868.09;5057783;28;20045;-74
2022/03/11 06:20:08;;;;;;;16.45;8.27;;;;;;;13.02;80.74;99855.44;5059116;28;20129;-75
2022/03/11 06:22:36;;;;;;;21.73;8.57;;;;;;;12.88;80.38;99822.97;5045474;28;20079;-73
2022/03/11 06:25:04;;;;;;;14.70;8.57;;;;;;;13.39;79.94;99898.38;5052056;28;20053;-72
2022/03/11 06:27:31;;;;;;;16.07;7.53;;;;;;;13.50;80.38;99938.22;5042434;28;20049;-74
2022/03/11 06:29:58;;;;;;;13.10;8.20;;;;;;;13.47;80.46;99936.09;5035635;28;20041;-73
2022/03/11 06:32:25;;;;;;;21.17;7.93;;;;;;;13.16;80.77;99891.00;5037175;28;20041;-73
2022/03/11 06:34:54;;;;;;;15.20;7.80;;;;;;;13.39;80.45;99937.63;5043471;28;20049;-74
2022/03/11 06:37:21;;;;;;;18.63;8.30;;;;;;;13.33;80.82;99936.09;5072349;28;20052;-77
2022/03/11 06:39:48;;;;;;;13.70;7.77;;;;;;;12.91;80.72;99876.41;5082571;28;20028;-77
2022/03/11 06:42:15;;;;;;;19.63;8.77;;;;;;;13.49;80.57;99948.63;5072202;28;20033;-77
2022/03/11 06:44:42;;;;;;;22.67;9.23;;;;;;;13.54;80.66;99949.66;5047711;28;20061;-76
2022/03/11 06:47:08;;;;;;;20.00;8.20;;;;;;;13.11;80.67;99879.94;5053243;28;20044;-75
2022/03/11 06:49:38;;;;;;;29.00;9.57;;;;;;;13.55;80.39;99945.72;5055243;28;20492;-76
2022/03/11 06:52:05;;;;;;;17.13;8.57;;;;;;;13.24;80.67;99895.94;5051924;28;20328;-76
2022/03/11 06:54:31;;;;;;;22.30;9.52;;;;;;;13.56;80.57;99947.38;5031755;28;20417;-76
2022/03/11 06:56:58;;;;;;;12.80;8.63;;;;;;;13.45;80.41;99925.16;5034124;28;20076;-73
2022/03/11 06:59:25;;;;;;;17.53;8.57;;;;;;;13.38;80.19;99923.94;5048818;28;20099;-75
2022/03/11 07:01:52;;;;;;;22.03;8.73;;;;;;;13.52;80.21;99958.41;5047309;28;20041;-74
2022/03/11 07:04:19;;;;;;;14.93;8.23;;;;;;;13.56;80.36;99955.78;5046207;28;20080;-79
2022/03/11 07:06:46;;;;;;;7.80;6.50;;;;;;;13.54;80.08;99956.13;5045278;28;20053;-79
2022/03/11 07:09:13;;;;;;;10.93;7.10;;;;;;;13.25;80.09;99920.84;5049079;28;20521;-78
2022/03/11 07:11:40;;;;;;;14.13;6.87;;;;;;;13.24;80.18;99923.97;5039285;28;20085;-80
2022/03/11 07:14:07;;;;;;;14.10;8.20;;;;;;;13.55;79.92;99970.97;5045705;28;20126;-80
2022/03/11 07:16:33;;;;;;;12.27;7.07;;;;;;;13.55;80.20;99979.38;5049105;28;20454;-79
2022/03/11 07:19:01;;;;;;;20.33;8.00;;;;;;;12.97;79.76;99882.75;5050332;28;20053;-77
2022/03/11 07:21:28;;;;;;;12.13;6.90;;;;;;;13.55;80.09;99977.41;5049593;28;20041;-76
2022/03/11 07:23:56;;;;;;;9.87;6.77;;;;;;;13.57;80.28;99966.69;5051750;28;20463;-77
2022/03/11 07:26:23;;;;;;;9.00;6.60;;;;;;;13.57;80.35;99977.09;5055750;28;20049;-79
2022/03/11 07:28:49;;;;;;;11.73;6.87;;;;;;;13.28;80.23;99942.66;5051068;28;20049;-79
2022/03/11 07:31:19;;;;;;;15.83;7.57;;;;;;;13.62;80.30;99985.41;5054222;28;20091;-79
2022/03/11 07:33:48;;;;;;;16.77;7.43;;;;;;;13.69;80.37;99992.22;5046860;28;20143;-78
2022/03/11 07:36:14;;;;;;;13.37;7.47;;;;;;;13.67;80.61;99988.91;5045152;28;20102;-78
2022/03/11 07:38:42;;;;;;;17.03;7.47;;;;;;;13.80;80.63;100009.66;5050697;28;20478;-81
2022/03/11 07:41:14;;;;;;;9.63;6.80;;;;;;;13.70;80.69;99981.84;5052854;28;20045;-80
2022/03/11 07:43:44;;;;;;;15.68;7.57;;;;;;;13.62;80.86;99962.97;5052096;28;20566;-78
2022/03/11 07:46:31;;;;;;;18.00;7.72;;;;;;;13.95;80.88;100009.34;5053912;28;20389;-77
2022/03/11 07:48:59;;;;;;;22.77;8.03;;;;;;;13.92;81.09;99995.09;5049333;28;20491;-80
2022/03/11 07:51:26;;;;;;;20.27;7.73;;;;;;;14.07;81.21;99996.69;5051480;28;20073;-80
2022/03/11 07:53:53;;;;;;;15.47;8.37;;;;;;;14.00;80.73;99983.09;5048798;28;20462;-78
2022/03/11 07:56:22;;;;;;;25.17;8.13;;;;;;;14.17;80.90;100014.13;5056506;28;20052;-78
2022/03/11 07:58:50;;;;;;;22.55;7.60;;;;;;;14.17;80.81;100007.69;5053368;28;20065;-77
2022/03/11 08:01:17;;;;;;;16.17;7.53;;;;;;;13.97;80.50;99970.53;5055574;28;20037;-78
2022/03/11 08:03:44;;;;;;;12.80;7.10;;;;;;;14.28;80.76;100017.50;5056272;28;20071;-79
2022/03/11 08:06:11;;;;;;;19.20;7.37;;;;;;;14.29;80.81;100010.78;5055926;28;20107;-80
2022/03/11 08:08:39;;;;;;;15.55;7.78;;;;;;;14.36;81.07;100024.38;5055827;28;20107;-78
2022/03/11 08:11:06;;;;;;;16.70;6.60;;;;;;;14.43;81.24;100017.16;5055554;28;20049;-78
2022/03/11 08:13:34;;;;;;;16.63;11.30;;;;;;;14.52;81.34;100024.81;5053468;28;20053;-79
2022/03/11 08:16:01;;;;;;;11.13;7.43;;;;;;;14.55;81.87;100021.38;5054954;28;20053;-78
2022/03/11 08:18:29;;;;;;;18.17;7.70;;;;;;;14.55;82.01;100021.38;5051952;28;20052;-78
2022/03/11 08:20:56;;;;;;;13.40;7.25;;;;;;;14.20;81.90;99984.59;5054305;28;20484;-78
2022/03/11 08:23:23;;;;;;;14.50;7.25;;;;;;;14.50;81.71;100043.97;5052320;28;20102;-80
2022/03/11 08:25:49;;;;;;;11.70;7.13;;;;;;;14.51;81.65;100045.66;5054790;28;20462;-79
2022/03/11 08:28:19;;;;;;;12.43;9.13;;;;;;;14.27;81.59;99999.00;5054254;28;20500;-80
2022/03/11 08:30:47;;;;;;;13.98;8.38;;;;;;;14.66;81.36;100051.69;5054337;28;20558;-79
2022/03/11 08:33:14;;;;;;;15.18;7.00;;;;;;;14.48;81.79;100012.53;5050987;28;20060;-78
2022/03/11 08:36:01;;;;;;;10.07;9.07;;;;;;;14.85;81.54;100061.94;5047119;28;20141;-80
2022/03/11 08:38:37;;;;;;;17.10;8.93;;;;;;;14.96;80.92;100052.06;5047741;28;20048;-79
2022/03/11 08:41:07;;;;;;;17.65;8.23;;;;;;;15.05;81.21;100049.31;5051881;28;20049;-80
2022/03/11 08:43:35;;;;;;;10.60;6.57;;;;;;;15.54;80.70;100036.91;5035992;28;20053;-78
2022/03/11 08:46:02;;;;;;;15.77;7.50;;;;;;;15.94;80.17;100069.84;5049413;28;20041;-79
2022/03/11 08:48:29;;;;;;;10.63;5.97;;;;;;;16.19;80.12;100054.97;5050847;28;20072;-78
2022/03/11 08:50:56;;;;;;;12.52;7.03;;;;;;;16.64;79.69;100045.34;5052950;28;20037;-79
2022/03/11 08:53:23;;;;;;;24.52;8.27;;;;;;;17.42;77.94;100084.66;5051046;28;20085;-79
2022/03/11 08:55:50;;;;;;;14.77;6.43;;;;;;;18.06;77.27;100081.69;5053691;28;20067;-79
2022/03/11 08:58:19;;;;;;;11.43;7.10;;;;;;;18.16;76.34;99988.03;5052647;28;20065;-79
2022/03/11 09:00:46;;;;;;;14.95;9.10;;;;;;;19.28;75.66;100081.47;5052800;28;20045;-79
2022/03/11 09:03:14;;;;;;;13.38;7.47;;;;;;;19.71;74.55;100076.47;5048627;28;20045;-81
2022/03/11 09:05:41;;;;;;;17.42;9.95;;;;;;;20.28;73.17;100095.31;5051392;28;20427;-79
2022/03/11 09:08:08;;;;;;;19.02;8.65;;;;;;;20.62;72.88;100110.16;5045730;28;20111;-78
2022/03/11 09:10:35;;;;;;;15.75;10.30;;;;;;;20.56;72.76;100048.00;5052327;28;20102;-79
2022/03/11 09:13:03;;;;;;;11.55;7.88;;;;;;;21.04;72.20;100083.00;5053993;28;20080;-80
2022/03/11 09:15:31;;;;;;;14.15;9.07;;;;;;;21.45;71.30;100109.31;5053000;28;20549;-79
2022/03/11 09:17:58;;;;;;;14.70;8.52;;;;;;;21.75;70.38;100111.72;5059340;28;20053;-78
2022/03/11 09:20:26;;;;;;;12.73;8.07;;;;;;;21.87;69.98;100114.44;5077269;28;20085;-79
2022/03/11 09:23:02;;;;;;;16.20;8.77;;;;;;;21.78;69.61;100093.94;5066156;28;20044;-78
2022/03/11 09:25:29;;;;;;;13.93;8.45;;;;;;;21.40;71.20;100112.44;5056257;28;20048;-79
2022/03/11 09:28:02;;;;;;;12.18;9.15;;;;;;;21.25;71.69;100131.06;5055258;28;20044;-79
2022/03/11 09:30:29;;;;;;;11.00;8.38;;;;;;;21.03;72.35;100114.63;5050519;28;20045;-79
2022/03/11 09:32:56;;;;;;;13.77;9.55;;;;;;;21.33;70.90;100122.72;5048521;28;20102;-79
2022/03/11 09:35:23;;;;;;;11.98;8.32;;;;;;;20.89;70.01;100063.94;5051002;28;20045;-78
2022/03/11 09:37:50;;;;;;;15.38;8.32;;;;;;;21.06;69.05;100077.81;5052454;28;20060;-80
2022/03/11 09:40:17;;;;;;;17.25;8.60;;;;;;;20.70;70.91;100123.38;5052959;28;20049;-79
2022/03/11 09:42:45;;;;;;;8.65;7.85;;;;;;;20.06;72.33;100131.47;5070390;28;20063;-79
2022/03/11 09:45:12;;;;;;;18.23;7.82;;;;;;;19.60;72.67;100130.72;5077415;28;20056;-79
2022/03/11 09:47:41;;;;;;;17.25;8.50;;;;;;;19.12;72.93;100103.13;5072725;28;20029;-78
2022/03/11 09:50:08;;;;;;;17.65;8.60;;;;;;;19.36;72.16;100113.69;5071204;28;20025;-79
2022/03/11 09:52:35;;;;;;;10.57;7.82;;;;;;;19.78;72.17;100124.88;5063885;28;20045;-80
2022/03/11 09:55:06;;;;;;;10.27;8.02;;;;;;;20.31;68.87;100145.66;5067972;28;20049;-80
2022/03/11 09:57:34;;;;;;;11.55;8.73;;;;;;;20.67;68.02;100150.44;5064918;28;20049;-80
2022/03/11 10:00:11;;;;;;;8.43;7.60;;;;;;;21.09;68.86;100152.88;5065476;28;20068;-82
2022/03/11 10:02:46;;;;;;;8.35;7.05;;;;;;;20.93;69.76;100113.13;5064956;28;20041;-83
2022/03/11 10:05:15;;;;;;;11.85;7.88;;;;;;;21.10;69.37;100129.00;5060323;28;20049;-78
2022/03/11 10:08:03;;;;;;;13.93;8.45;;;;;;;21.31;69.97;100140.16;5051692;28;20067;-78
2022/03/11 10:10:30;;;;;;;9.73;7.43;;;;;;;21.36;70.19;100144.75;5047390;28;20044;-79
2022/03/11 10:13:12;;;;;;;8.60;7.70;;;;;;;21.40;69.74;100166.41;5051572;28;20076;-80
2022/03/11 10:15:40;;;;;;;14.13;9.52;;;;;;;21.26;69.03;100151.75;5050438;28;20044;-80
2022/03/11 10:18:14;;;;;;;9.75;7.78;;;;;;;21.29;69.53;100162.38;5050952;28;20090;-82
2022/03/11 10:20:41;;;;;;;10.93;9.75;;;;;;;21.06;68.18;100145.13;5050982;28;20575;-79
2022/03/11 10:23:10;;;;;;;10.98;8.05;;;;;;;21.36;68.79;100154.09;5051159;28;20397;-79
2022/03/11 10:25:37;;;;;;;12.18;7.35;;;;;;;21.44;69.34;100152.31;5051374;28;20040;-79
2022/03/11 10:28:10;;;;;;;8.90;7.32;;;;;;;21.19;70.36;100123.97;5048705;28;20500;-79
2022/03/11 10:30:43;;;;;;;11.70;8.10;;;;;;;20.77;71.01;100161.28;5033073;28;20496;-78
2022/03/11 10:33:12;;;;;;;10.23;7.38;;;;;;;20.33;71.04;100103.56;5049355;28;20045;-80
2022/03/11 10:35:47;;;;;;;10.98;7.57;;;;;;;20.23;72.03;100155.09;5051745;28;20500;-78
2022/03/11 10:38:20;;;;;;;20.98;8.05;;;;;;;19.83;72.32;100152.97;5052928;28;20458;-79
2022/03/11 10:40:57;;;;;;;8.82;7.95;;;;;;;20.01;72.59;100171.41;5051256;28;20503;-79
2022/03/11 10:43:26;;;;;;;12.23;8.07;;;;;;;20.58;71.75;100167.63;5052610;28;20049;-78
2022/03/11 10:45:56;;;;;;;11.55;8.25;;;;;;;21.27;70.43;100144.91;5049600;28;20049;-79
2022/03/11 10:48:43;;;;;;;11.55;10.07;;;;;;;22.19;68.38;100172.16;5052672;28;20110;-79
2022/03/11 10:51:25;;;;;;;15.23;9.82;;;;;;;22.15;69.89;100182.63;5048971;28;20094;-78
2022/03/11 10:53:52;;;;;;;12.98;9.23;;;;;;;21.98;68.77;100194.31;5055989;28;20049;-79
2022/03/11 10:56:42;;;;;;;17.40;8.10;;;;;;;21.35;71.88;100194.25;5052257;28;20103;-79
2022/03/11 10:59:21;;;;;;;9.57;7.93;;;;;;;21.02;71.23;100195.28;5059995;28;20087;-78
2022/03/11 11:01:51;;;;;;;8.80;8.07;;;;;;;20.94;70.93;100184.91;5074392;28;20045;-79
2022/03/11 11:04:19;;;;;;;13.10;8.63;;;;;;;21.00;70.84;100192.81;5068423;28;20044;-78
2022/03/11 11:06:46;;;;;;;10.90;7.95;;;;;;;20.65;71.71;100177.50;5075991;28;20056;-78
2022/03/11 11:09:17;;;;;;;10.13;9.35;;;;;;;20.71;71.30;100162.72;5074024;28;20053;-77
2022/03/11 11:11:45;;;;;;;11.50;10.55;;;;;;;21.17;69.82;100193.69;5080184;28;20053;-78
2022/03/11 11:14:12;;;;;;;16.65;10.07;;;;;;;20.94;69.07;100156.50;5076652;28;20052;-80
2022/03/11 11:16:41;;;;;;;9.30;8.23;;;;;;;21.69;68.75;100198.44;5075823;28;20049;-78
2022/03/11 11:19:17;;;;;;;11.25;10.23;;;;;;;22.04;68.16;100209.09;5065448;28;20535;-80
2022/03/11 11:21:47;;;;;;;9.93;9.02;;;;;;;22.24;67.91;100199.50;5062742;28;20067;-81
2022/03/11 11:24:16;;;;;;;9.10;8.27;;;;;;;22.01;68.13;100205.78;5062940;28;20045;-80
2022/03/11 11:26:48;;;;;;;9.50;8.63;;;;;;;22.01;68.07;100217.16;5059452;28;20057;-82